Time;durP1;ratioP1;P1;durP2;ratioP2;P2;SDS_P1;SDS_P2;PMS_P1;PMS_P2;Temp;Humidity;BMP_temperature;BMP_pressure;BME280_temperature;BME280_humidity;BME280_pressure;Samples;Min_cycle;Max_cycle;Signal;HPM_P1;HPM_P2
2023/10/08 00:01:21;;;;;;;7.50;4.97;;;18.80;99.90;;;;;;5055370;23;20219;-79
2023/10/08 00:03:50;;;;;;;5.55;3.92;;;18.70;99.90;;;;;;5013924;28;20199;-79
2023/10/08 00:06:20;;;;;;;10.93;5.07;;;18.80;99.90;;;;;;5010729;28;20542;-79
2023/10/08 00:08:48;;;;;;;9.30;5.00;;;18.70;99.90;;;;;;5028986;28;20195;-79
2023/10/08 00:11:16;;;;;;;6.07;4.00;;;18.70;99.90;;;;;;5021132;28;20218;-79
2023/10/08 00:13:44;;;;;;;7.47;4.38;;;18.70;99.90;;;;;;5024703;28;20213;-79
2023/10/08 00:16:16;;;;;;;7.15;4.60;;;18.70;99.90;;;;;;5026736;28;20205;-79
2023/10/08 00:18:50;;;;;;;7.57;4.53;;;18.70;99.90;;;;;;5030762;28;20218;-79
2023/10/08 00:21:26;;;;;;;7.25;5.00;;;18.70;99.90;;;;;;5025756;28;20218;-79
2023/10/08 00:23:57;;;;;;;7.95;5.38;;;18.70;99.90;;;;;;5042723;28;20202;-79
2023/10/08 00:26:29;;;;;;;8.18;4.70;;;18.70;99.90;;;;;;5045735;28;20191;-79
2023/10/08 00:28:59;;;;;;;7.45;4.30;;;18.60;99.90;;;;;;5045907;28;20195;-79
2023/10/08 00:31:30;;;;;;;6.78;4.57;;;18.60;99.90;;;;;;5025698;28;20229;-79
2023/10/08 00:33:58;;;;;;;6.85;4.75;;;18.60;99.90;;;;;;5022592;28;20203;-79
2023/10/08 00:36:27;;;;;;;7.88;5.03;;;18.60;99.90;;;;;;5029831;28;20198;-78
2023/10/08 00:38:58;;;;;;;9.65;5.15;;;18.60;99.90;;;;;;5041070;28;20218;-78
2023/10/08 00:41:28;;;;;;;7.65;5.00;;;18.50;99.90;;;;;;5031498;28;20222;-78
2023/10/08 00:43:59;;;;;;;6.93;4.35;;;18.60;99.90;;;;;;5029203;28;20194;-78
2023/10/08 00:46:31;;;;;;;9.20;4.97;;;18.50;99.90;;;;;;5041296;28;20217;-78
2023/10/08 00:49:18;;;;;;;10.15;4.95;;;18.50;99.90;;;;;;5021423;28;20206;-78
2023/10/08 00:51:59;;;;;;;10.52;5.13;;;18.40;99.90;;;;;;5027793;28;20219;-78
2023/10/08 00:54:32;;;;;;;7.00;5.03;;;18.50;99.90;;;;;;5023634;28;20695;-79
2023/10/08 00:57:04;;;;;;;12.32;5.15;;;18.50;99.90;;;;;;5045367;28;20201;-78
2023/10/08 00:59:49;;;;;;;8.05;4.95;;;18.40;99.90;;;;;;5045086;28;20217;-77
2023/10/08 01:02:21;;;;;;;7.55;4.57;;;18.50;99.90;;;;;;5029442;28;20229;-77
2023/10/08 01:04:50;;;;;;;9.98;5.35;;;18.40;99.90;;;;;;5027121;28;20537;-78
2023/10/08 01:07:19;;;;;;;6.68;4.43;;;18.30;99.90;;;;;;5038202;28;20221;-77
2023/10/08 01:09:51;;;;;;;8.25;4.80;;;18.40;99.90;;;;;;5031028;28;20195;-77
2023/10/08 01:12:26;;;;;;;6.93;4.70;;;18.30;99.90;;;;;;5050287;28;20218;-79
2023/10/08 01:14:54;;;;;;;9.82;5.38;;;18.30;99.90;;;;;;5035327;28;20208;-77
2023/10/08 01:17:25;;;;;;;9.32;4.80;;;18.40;99.90;;;;;;5034663;28;20213;-77
2023/10/08 01:20:19;;;;;;;10.15;4.45;;;18.40;99.90;;;;;;5031637;28;20218;-77
2023/10/08 01:22:43;;;;;;;7.72;4.78;;;18.30;99.90;;;;;;5047266;28;20206;-77
2023/10/08 01:25:11;;;;;;;8.55;4.63;;;18.40;99.90;;;;;;5039517;28;20198;-77
2023/10/08 01:27:42;;;;;;;8.00;4.60;;;18.40;99.90;;;;;;5033812;28;20512;-77
2023/10/08 01:30:17;;;;;;;8.13;4.45;;;18.50;99.90;;;;;;5035321;28;20547;-77
2023/10/08 01:32:45;;;;;;;8.73;4.80;;;18.50;99.90;;;;;;5034630;28;20210;-78
2023/10/08 01:35:22;;;;;;;10.02;5.13;;;18.40;99.90;;;;;;5036053;28;20198;-86
2023/10/08 01:37:52;;;;;;;9.13;4.60;;;18.40;99.90;;;;;;5033199;28;20194;-77
2023/10/08 01:40:19;;;;;;;8.27;4.90;;;18.30;99.90;;;;;;5037967;28;20222;-78
2023/10/08 01:42:47;;;;;;;8.23;5.18;;;18.30;99.90;;;;;;5041444;28;20207;-77
2023/10/08 01:45:19;;;;;;;6.82;4.70;;;18.30;99.90;;;;;;5047999;28;20206;-77
2023/10/08 01:47:50;;;;;;;9.10;5.13;;;18.30;99.90;;;;;;5032330;28;20221;-77
2023/10/08 01:50:21;;;;;;;8.40;4.95;;;18.20;99.90;;;;;;5041954;28;20205;-77
2023/10/08 01:52:48;;;;;;;6.28;4.35;;;18.20;99.90;;;;;;5032252;28;20195;-77
2023/10/08 01:55:19;;;;;;;8.55;5.43;;;18.20;99.90;;;;;;5026858;28;20206;-80
2023/10/08 01:57:48;;;;;;;7.07;4.75;;;18.20;99.90;;;;;;5028621;28;20660;-76
2023/10/08 02:00:19;;;;;;;9.38;5.40;;;18.20;99.90;;;;;;5031811;28;20222;-78
2023/10/08 02:02:50;;;;;;;9.35;5.72;;;18.10;99.90;;;;;;5028900;28;20213;-79
2023/10/08 02:05:18;;;;;;;8.20;4.63;;;18.10;99.90;;;;;;5034583;28;20680;-77
2023/10/08 02:07:46;;;;;;;9.23;5.18;;;18.10;99.90;;;;;;5027982;28;20198;-77
2023/10/08 02:10:14;;;;;;;9.75;5.25;;;18.20;99.90;;;;;;5034633;28;20199;-77
2023/10/08 02:12:44;;;;;;;7.43;5.20;;;18.10;99.90;;;;;;5044777;28;20198;-77
2023/10/08 02:15:12;;;;;;;8.80;4.63;;;18.10;99.90;;;;;;5029384;28;20201;-77
2023/10/08 02:17:39;;;;;;;10.55;5.20;;;18.10;99.90;;;;;;5047804;28;20202;-77
2023/10/08 02:20:09;;;;;;;8.15;4.60;;;18.10;99.90;;;;;;5037224;28;20226;-77
2023/10/08 02:22:38;;;;;;;11.48;5.50;;;18.00;99.90;;;;;;5023906;28;20206;-77
2023/10/08 02:25:06;;;;;;;9.73;5.45;;;18.00;99.90;;;;;;5033973;28;20203;-79
2023/10/08 02:27:37;;;;;;;9.27;5.65;;;18.00;99.90;;;;;;5030715;28;20199;-80
2023/10/08 02:30:12;;;;;;;9.35;5.70;;;18.00;99.90;;;;;;5052588;28;20213;-77
2023/10/08 02:32:42;;;;;;;9.63;5.10;;;18.00;99.90;;;;;;5031048;28;20202;-77
2023/10/08 02:35:11;;;;;;;7.35;4.85;;;17.90;99.90;;;;;;5027177;28;20210;-79
2023/10/08 02:37:39;;;;;;;10.63;5.03;;;18.00;99.90;;;;;;5049892;28;20191;-77
2023/10/08 02:40:16;;;;;;;8.90;5.00;;;18.00;99.90;;;;;;5024581;28;20218;-78
2023/10/08 02:42:44;;;;;;;7.38;4.95;;;17.90;99.90;;;;;;5027669;28;20210;-77
2023/10/08 02:45:14;;;;;;;6.28;4.82;;;18.00;99.90;;;;;;5027225;28;20217;-77
2023/10/08 02:47:44;;;;;;;8.23;5.07;;;17.90;99.90;;;;;;5026292;28;20567;-77
2023/10/08 02:50:16;;;;;;;11.88;5.10;;;17.90;99.90;;;;;;5034094;28;20202;-77
2023/10/08 02:52:45;;;;;;;7.80;5.10;;;17.90;99.90;;;;;;5028290;28;20190;-77
2023/10/08 02:55:25;;;;;;;9.52;5.05;;;17.90;99.90;;;;;;5027157;28;20194;-77
2023/10/08 02:57:53;;;;;;;8.13;4.63;;;17.90;99.90;;;;;;5045271;28;20198;-78
2023/10/08 03:00:29;;;;;;;10.00;5.63;;;17.90;99.90;;;;;;5029534;28;20225;-77
2023/10/08 03:02:58;;;;;;;8.63;5.10;;;17.90;99.90;;;;;;5030646;28;20199;-79
2023/10/08 03:05:30;;;;;;;9.10;5.05;;;17.90;99.90;;;;;;5031670;28;20201;-77
2023/10/08 03:07:58;;;;;;;8.98;4.85;;;17.90;99.90;;;;;;5042299;28;20194;-79
2023/10/08 03:10:33;;;;;;;8.88;4.75;;;18.00;99.90;;;;;;5030149;28;20218;-77
2023/10/08 03:13:04;;;;;;;7.60;4.82;;;18.00;99.90;;;;;;5026759;28;20199;-77
2023/10/08 03:15:46;;;;;;;8.93;5.07;;;18.00;99.90;;;;;;5031125;28;20198;-77
2023/10/08 03:18:15;;;;;;;8.23;4.97;;;18.00;99.90;;;;;;5023242;28;20210;-77
2023/10/08 03:20:45;;;;;;;6.97;4.88;;;18.00;99.90;;;;;;5026795;28;20221;-77
2023/10/08 03:23:23;;;;;;;8.95;5.43;;;17.90;99.90;;;;;;5028440;28;20209;-77
2023/10/08 03:25:59;;;;;;;7.82;5.13;;;17.90;99.90;;;;;;5029041;28;20217;-77
2023/10/08 03:28:27;;;;;;;7.72;4.90;;;17.80;99.90;;;;;;5025327;28;20643;-77
2023/10/08 03:31:03;;;;;;;9.02;5.38;;;17.70;99.90;;;;;;5023418;28;20728;-77
2023/10/08 03:33:34;;;;;;;9.38;4.95;;;17.70;99.90;;;;;;5023350;28;20668;-77
2023/10/08 03:36:08;;;;;;;8.73;5.05;;;17.60;99.90;;;;;;5029461;28;20599;-78
2023/10/08 03:41:29;;;;;;;9.40;5.82;;;17.50;99.90;;;;;;5030582;28;20210;-77
2023/10/08 03:44:01;;;;;;;13.23;5.88;;;17.50;99.90;;;;;;5033811;28;20217;-77
2023/10/08 03:46:31;;;;;;;7.68;5.38;;;17.50;99.90;;;;;;5024212;28;20203;-77
2023/10/08 03:49:04;;;;;;;9.40;4.75;;;17.50;99.90;;;;;;5055101;28;20209;-77
2023/10/08 03:51:38;;;;;;;8.95;5.05;;;17.60;99.90;;;;;;5032049;28;20214;-78
2023/10/08 03:54:20;;;;;;;8.68;5.00;;;17.60;99.90;;;;;;5045499;28;20193;-78
2023/10/08 03:56:51;;;;;;;13.93;5.40;;;17.60;99.90;;;;;;5043978;28;20198;-77
2023/10/08 03:59:30;;;;;;;11.35;5.43;;;17.40;99.90;;;;;;5035544;28;20217;-78
2023/10/08 04:02:09;;;;;;;10.57;5.35;;;17.40;99.90;;;;;;5039636;28;20222;-77
2023/10/08 04:04:50;;;;;;;9.98;5.47;;;17.40;99.90;;;;;;5047525;28;20217;-77
2023/10/08 04:07:39;;;;;;;8.38;5.20;;;17.40;99.90;;;;;;5036518;28;20202;-77
2023/10/08 04:10:39;;;;;;;11.13;5.97;;;17.40;99.90;;;;;;5044994;28;20202;-78
2023/10/08 04:13:08;;;;;;;12.40;5.53;;;17.30;99.90;;;;;;5031904;28;20205;-77
2023/10/08 04:15:40;;;;;;;12.07;5.45;;;17.20;99.90;;;;;;5049019;28;20199;-77
2023/10/08 04:18:09;;;;;;;9.95;5.32;;;17.30;99.90;;;;;;5031087;28;20209;-77
2023/10/08 04:20:39;;;;;;;11.27;5.50;;;17.40;99.90;;;;;;5048610;28;20229;-83
2023/10/08 04:23:13;;;;;;;15.75;5.70;;;17.40;99.90;;;;;;5045864;28;20401;-77
2023/10/08 04:25:42;;;;;;;10.90;4.88;;;17.40;99.90;;;;;;5030918;28;20205;-78
2023/10/08 04:28:14;;;;;;;10.13;4.88;;;17.40;99.90;;;;;;5043193;28;20194;-77
2023/10/08 04:30:43;;;;;;;8.55;5.88;;;17.40;99.90;;;;;;5028438;28;20222;-80
2023/10/08 04:33:12;;;;;;;10.77;5.45;;;17.40;99.90;;;;;;5027491;28;20201;-77
2023/10/08 04:35:48;;;;;;;10.48;6.22;;;17.30;99.90;;;;;;5033268;28;20205;-77
2023/10/08 04:38:17;;;;;;;10.45;6.35;;;17.30;99.90;;;;;;5055207;28;20185;-82
2023/10/08 04:40:48;;;;;;;14.52;6.78;;;17.40;99.90;;;;;;5035887;28;20249;-79
2023/10/08 04:43:21;;;;;;;10.73;6.20;;;17.30;99.90;;;;;;5040889;28;20202;-77
2023/10/08 04:45:59;;;;;;;9.63;5.72;;;17.20;99.90;;;;;;5029203;28;20191;-78
2023/10/08 04:48:31;;;;;;;8.68;6.00;;;17.30;99.90;;;;;;5035526;28;20213;-77
2023/10/08 04:50:59;;;;;;;10.80;5.68;;;17.20;99.90;;;;;;5033169;28;20218;-77
2023/10/08 04:53:31;;;;;;;13.15;6.65;;;17.20;99.90;;;;;;5039697;28;20198;-77
2023/10/08 04:56:05;;;;;;;9.40;5.57;;;17.10;99.90;;;;;;5032850;28;20195;-77
2023/10/08 04:58:36;;;;;;;8.15;5.00;;;17.10;99.90;;;;;;5049935;28;20201;-77
2023/10/08 05:01:18;;;;;;;10.35;5.85;;;17.00;99.90;;;;;;5038032;28;20230;-77
2023/10/08 05:04:07;;;;;;;9.95;5.65;;;17.10;99.90;;;;;;5048475;28;20214;-77
2023/10/08 05:09:23;;;;;;;10.18;5.40;;;17.30;99.90;;;;;;5024367;28;20195;-77
2023/10/08 05:12:10;;;;;;;9.60;5.47;;;17.30;99.90;;;;;;5041255;28;20214;-77
2023/10/08 05:14:45;;;;;;;12.35;5.63;;;17.20;99.90;;;;;;5037222;28;20406;-77
2023/10/08 05:17:21;;;;;;;11.98;5.75;;;17.30;99.90;;;;;;5033901;28;20190;-77
2023/10/08 05:20:17;;;;;;;8.70;5.55;;;17.20;99.90;;;;;;5043949;28;20199;-77
2023/10/08 05:22:44;;;;;;;10.18;5.38;;;17.20;99.90;;;;;;5046390;28;20214;-78
2023/10/08 05:25:24;;;;;;;11.57;6.18;;;17.20;99.90;;;;;;5030038;28;20198;-79
2023/10/08 05:27:58;;;;;;;12.45;7.22;;;17.10;99.90;;;;;;5034096;28;20190;-78
2023/10/08 05:30:28;;;;;;;8.90;5.57;;;17.00;99.90;;;;;;5027393;28;20219;-77
2023/10/08 05:33:23;;;;;;;10.25;6.75;;;17.00;99.90;;;;;;5032207;28;20187;-77
2023/10/08 05:36:02;;;;;;;10.40;6.82;;;16.90;99.90;;;;;;5033041;28;20198;-77
2023/10/08 05:38:59;;;;;;;9.73;6.32;;;16.90;99.90;;;;;;5047390;28;20202;-81
2023/10/08 05:41:38;;;;;;;13.73;5.72;;;16.90;99.90;;;;;;5035687;28;20218;-86
2023/10/08 05:44:23;;;;;;;11.60;5.88;;;16.90;99.90;;;;;;5042806;28;20213;-78
2023/10/08 05:47:28;;;;;;;10.77;5.85;;;17.00;99.90;;;;;;5051146;28;20199;-77
2023/10/08 05:50:28;;;;;;;12.27;6.35;;;16.90;99.90;;;;;;5029425;28;20206;-77
2023/10/08 05:52:52;;;;;;;10.30;6.10;;;16.80;99.90;;;;;;5037255;28;20229;-77
2023/10/08 05:55:26;;;;;;;9.85;5.60;;;16.80;99.90;;;;;;5045346;28;20191;-77
2023/10/08 05:58:35;;;;;;;11.90;6.32;;;17.00;99.90;;;;;;5045755;28;20182;-78
2023/10/08 06:01:08;;;;;;;10.88;5.93;;;16.90;99.90;;;;;;5039852;28;20723;-80
2023/10/08 06:03:59;;;;;;;11.48;6.25;;;16.90;99.90;;;;;;5034565;28;20191;-83
2023/10/08 06:06:37;;;;;;;10.93;5.90;;;16.90;99.90;;;;;;5030742;28;20202;-81
2023/10/08 06:12:19;;;;;;;11.10;5.88;;;16.80;99.90;;;;;;5040160;28;20210;-79
2023/10/08 06:15:07;;;;;;;7.60;5.45;;;16.90;99.90;;;;;;5038012;28;20210;-78
2023/10/08 06:17:55;;;;;;;9.63;5.55;;;17.00;99.90;;;;;;5032454;28;20205;-78
2023/10/08 06:20:25;;;;;;;9.68;5.70;;;17.00;99.90;;;;;;5037912;28;20214;-79
2023/10/08 06:22:59;;;;;;;7.97;5.28;;;17.00;99.90;;;;;;5026443;28;20203;-79
2023/10/08 06:25:30;;;;;;;9.55;5.65;;;17.10;99.90;;;;;;5029729;28;20202;-80
2023/10/08 06:27:58;;;;;;;11.30;5.85;;;17.10;99.90;;;;;;5028135;28;20194;-79
2023/10/08 06:30:34;;;;;;;11.43;6.60;;;17.20;99.90;;;;;;5027391;28;20223;-81
2023/10/08 06:33:03;;;;;;;8.93;5.85;;;17.20;99.90;;;;;;5037953;28;20190;-80
2023/10/08 06:35:32;;;;;;;10.75;6.15;;;17.20;99.90;;;;;;5028043;28;20206;-79
2023/10/08 06:38:01;;;;;;;11.57;6.80;;;17.20;99.90;;;;;;5050874;28;20225;-83
2023/10/08 06:40:42;;;;;;;12.52;6.28;;;17.20;99.90;;;;;;5028646;28;20221;-77
2023/10/08 06:43:14;;;;;;;14.25;6.97;;;17.20;99.90;;;;;;5036807;28;20203;-76
2023/10/08 06:45:43;;;;;;;14.20;6.60;;;17.20;99.90;;;;;;5053556;28;20198;-76
2023/10/08 06:48:17;;;;;;;10.77;7.07;;;17.20;99.90;;;;;;5029209;28;20214;-77
2023/10/08 06:50:45;;;;;;;11.55;7.18;;;17.30;99.90;;;;;;5025422;28;20228;-77
2023/10/08 06:53:17;;;;;;;12.90;7.05;;;17.40;99.90;;;;;;5049156;28;20553;-77
2023/10/08 06:55:48;;;;;;;69.85;33.03;;;17.40;99.90;;;;;;5030676;28;20210;-80
2023/10/08 06:58:16;;;;;;;42.92;18.80;;;17.30;99.90;;;;;;5045095;28;20197;-81
2023/10/08 07:00:48;;;;;;;23.55;12.23;;;17.30;99.90;;;;;;5025139;28;20252;-81
2023/10/08 07:03:17;;;;;;;37.72;21.60;;;17.40;99.90;;;;;;5035515;28;20217;-79
2023/10/08 07:05:53;;;;;;;40.40;25.33;;;17.60;99.90;;;;;;5025347;28;20202;-81
2023/10/08 07:08:24;;;;;;;13.25;8.40;;;17.80;99.90;;;;;;5025658;28;20202;-79
2023/10/08 07:10:53;;;;;;;14.35;7.47;;;17.70;99.90;;;;;;5028193;28;20222;-80
2023/10/08 07:13:22;;;;;;;13.55;7.03;;;17.60;99.90;;;;;;5030082;28;20205;-80
2023/10/08 07:15:50;;;;;;;13.25;7.18;;;17.70;99.90;;;;;;5031114;28;20568;-80
2023/10/08 07:18:25;;;;;;;10.30;5.95;;;17.60;99.90;;;;;;5024421;28;20206;-80
2023/10/08 07:21:00;;;;;;;9.23;4.78;;;17.50;99.90;;;;;;5025552;28;20244;-81
2023/10/08 07:23:57;;;;;;;6.72;4.78;;;17.40;99.90;;;;;;5051336;28;20202;-80
2023/10/08 07:26:36;;;;;;;16.60;7.20;;;17.00;99.90;;;;;;5047431;28;20206;-79
2023/10/08 07:29:08;;;;;;;24.08;9.43;;;17.10;99.90;;;;;;5047131;28;20194;-80
2023/10/08 07:31:48;;;;;;;48.35;16.85;;;17.30;99.90;;;;;;5053615;28;20211;-80
2023/10/08 07:34:18;;;;;;;17.23;6.38;;;17.10;99.90;;;;;;5016262;28;20194;-80
2023/10/08 07:36:49;;;;;;;25.85;9.23;;;17.00;99.90;;;;;;5033721;28;20202;-82
2023/10/08 07:39:25;;;;;;;10.40;4.10;;;16.80;99.90;;;;;;5029048;28;20199;-80
2023/10/08 07:41:55;;;;;;;8.25;4.38;;;16.50;99.90;;;;;;5032127;28;20253;-81
2023/10/08 07:44:23;;;;;;;3.28;2.35;;;16.80;99.90;;;;;;5022992;28;20190;-80
2023/10/08 07:46:51;;;;;;;6.22;2.55;;;16.60;99.90;;;;;;5022707;28;20363;-81
2023/10/08 07:49:18;;;;;;;9.43;2.88;;;16.50;99.90;;;;;;5028084;28;20195;-80
2023/10/08 07:51:58;;;;;;;6.75;3.05;;;16.60;99.90;;;;;;5020592;28;20237;-79
2023/10/08 07:54:28;;;;;;;5.35;2.50;;;16.80;99.90;;;;;;5021761;28;20655;-78
2023/10/08 07:57:08;;;;;;;3.78;2.50;;;16.80;99.90;;;;;;5030986;28;20214;-77
2023/10/08 07:59:38;;;;;;;5.60;2.75;;;16.30;99.90;;;;;;5035022;28;20205;-78
2023/10/08 08:02:09;;;;;;;4.45;2.78;;;16.20;99.90;;;;;;5044003;28;20230;-77
2023/10/08 08:04:37;;;;;;;9.25;3.05;;;16.40;99.90;;;;;;5032076;28;20213;-80
2023/10/08 08:07:06;;;;;;;5.57;3.03;;;16.20;99.90;;;;;;5032492;28;20206;-84
2023/10/08 08:09:37;;;;;;;5.18;2.65;;;16.30;99.90;;;;;;5034485;28;20559;-83
2023/10/08 08:12:11;;;;;;;5.50;3.25;;;16.40;99.90;;;;;;5049157;28;20215;-80
2023/10/08 08:14:41;;;;;;;5.50;4.10;;;16.10;99.90;;;;;;5025659;28;20194;-84
2023/10/08 08:17:14;;;;;;;9.02;4.05;;;16.10;99.90;;;;;;5028991;28;20206;-85
2023/10/08 08:19:43;;;;;;;8.68;6.72;;;16.00;99.90;;;;;;5028818;28;20209;-82
2023/10/08 08:22:15;;;;;;;7.75;6.25;;;16.10;99.90;;;;;;5026723;28;20218;-83
2023/10/08 08:24:45;;;;;;;11.88;7.38;;;16.10;99.90;;;;;;5027152;28;20206;-79
2023/10/08 08:27:23;;;;;;;9.02;6.45;;;16.10;99.90;;;;;;5036674;28;20194;-78
2023/10/08 08:29:55;;;;;;;8.68;6.68;;;16.20;99.90;;;;;;5033866;28;20209;-80
2023/10/08 08:32:23;;;;;;;10.55;6.20;;;16.10;99.90;;;;;;5030868;28;20218;-78
2023/10/08 08:34:52;;;;;;;6.72;4.53;;;16.30;99.90;;;;;;5026510;28;20653;-77
2023/10/08 08:37:22;;;;;;;6.10;4.25;;;16.40;99.90;;;;;;5032430;28;21433;-80
2023/10/08 08:39:54;;;;;;;8.40;4.85;;;16.20;99.90;;;;;;5035247;28;20205;-80
2023/10/08 08:42:26;;;;;;;9.23;4.97;;;16.00;99.90;;;;;;5025656;28;20225;-80
2023/10/08 08:44:57;;;;;;;10.93;6.90;;;16.20;99.90;;;;;;5026272;28;20221;-81
2023/10/08 08:47:28;;;;;;;9.45;5.60;;;15.80;99.90;;;;;;5025555;28;20205;-79
2023/10/08 08:50:00;;;;;;;7.43;4.70;;;15.80;99.90;;;;;;5029823;28;20198;-78
2023/10/08 08:52:28;;;;;;;6.22;4.35;;;16.00;99.90;;;;;;5027624;28;20225;-77
2023/10/08 08:54:56;;;;;;;4.65;3.45;;;15.90;99.90;;;;;;5019314;28;20565;-78
2023/10/08 08:57:25;;;;;;;4.40;2.92;;;15.60;99.90;;;;;;5029543;28;20668;-77
2023/10/08 08:59:55;;;;;;;5.28;2.83;;;15.60;99.90;;;;;;5034646;28;20197;-78
2023/10/08 09:02:22;;;;;;;4.82;2.90;;;15.60;99.90;;;;;;5025177;28;20233;-78
2023/10/08 09:04:50;;;;;;;5.65;3.47;;;15.60;99.90;;;;;;5027848;28;20218;-79
2023/10/08 09:07:22;;;;;;;5.40;3.15;;;15.50;99.90;;;;;;5049044;28;20202;-79
2023/10/08 09:09:50;;;;;;;6.72;4.05;;;15.60;99.90;;;;;;5031935;28;20206;-79
2023/10/08 09:12:18;;;;;;;8.18;4.07;;;15.80;99.90;;;;;;5027159;28;20234;-80
2023/10/08 09:14:47;;;;;;;8.13;4.63;;;15.90;99.90;;;;;;5033080;28;20194;-79
2023/10/08 09:17:17;;;;;;;8.55;5.18;;;15.60;99.90;;;;;;5036832;28;20197;-80
2023/10/08 09:19:46;;;;;;;8.40;5.40;;;15.40;99.90;;;;;;5035399;28;20203;-80
2023/10/08 09:22:19;;;;;;;10.45;5.75;;;15.60;99.90;;;;;;5037406;28;20222;-81
2023/10/08 09:24:46;;;;;;;8.60;4.30;;;15.60;99.90;;;;;;5051109;28;20221;-79
2023/10/08 09:27:15;;;;;;;11.30;5.45;;;15.90;99.90;;;;;;5059303;28;20194;-80
2023/10/08 09:29:43;;;;;;;8.07;4.82;;;15.90;99.90;;;;;;5037738;28;20202;-80
2023/10/08 09:32:14;;;;;;;4.78;3.40;;;15.60;99.90;;;;;;5055127;28;20222;-80
2023/10/08 09:34:43;;;;;;;4.70;3.20;;;15.80;99.90;;;;;;5038166;28;20567;-80
2023/10/08 09:37:11;;;;;;;4.28;2.58;;;15.60;99.90;;;;;;5040697;28;20202;-80
2023/10/08 09:39:42;;;;;;;3.50;2.20;;;15.40;99.90;;;;;;5038841;28;20563;-80
2023/10/08 09:42:11;;;;;;;5.28;2.50;;;15.20;99.90;;;;;;5056736;28;20222;-81
2023/10/08 09:44:39;;;;;;;2.97;1.40;;;15.40;99.90;;;;;;5040153;28;20226;-79
2023/10/08 09:47:10;;;;;;;2.55;1.25;;;15.30;99.90;;;;;;5034438;28;20565;-79
2023/10/08 09:49:42;;;;;;;1.60;0.95;;;15.40;99.90;;;;;;5031664;28;20206;-78
2023/10/08 09:52:10;;;;;;;1.73;1.20;;;15.40;99.90;;;;;;5027552;28;20229;-77
2023/10/08 09:54:44;;;;;;;1.55;0.98;;;15.40;99.90;;;;;;5028248;28;20684;-77
2023/10/08 09:57:21;;;;;;;1.15;0.82;;;15.30;99.90;;;;;;5040740;28;20195;-77
2023/10/08 09:59:50;;;;;;;1.23;1.05;;;15.40;99.90;;;;;;5025789;28;20209;-77
2023/10/08 10:02:18;;;;;;;2.30;1.30;;;15.50;99.90;;;;;;5051982;28;20222;-77
2023/10/08 10:04:48;;;;;;;2.45;1.48;;;15.50;99.90;;;;;;5047111;28;20205;-77
2023/10/08 10:07:16;;;;;;;2.65;1.98;;;15.40;99.90;;;;;;5032487;28;20195;-77
2023/10/08 10:09:46;;;;;;;3.50;2.20;;;15.50;99.90;;;;;;5022495;28;20198;-77
2023/10/08 10:12:25;;;;;;;5.43;3.92;;;15.50;99.90;;;;;;5030894;28;20206;-77
2023/10/08 10:14:55;;;;;;;4.90;4.22;;;15.50;99.90;;;;;;5031002;28;20198;-77
2023/10/08 10:17:25;;;;;;;4.75;4.35;;;15.20;99.90;;;;;;5030590;28;20683;-77
2023/10/08 10:19:59;;;;;;;5.25;4.15;;;15.30;99.90;;;;;;5047366;28;20195;-77
2023/10/08 10:22:31;;;;;;;4.40;3.55;;;15.30;99.90;;;;;;5052877;28;20213;-77
2023/10/08 10:25:00;;;;;;;3.50;3.20;;;15.30;99.90;;;;;;5029889;28;20215;-77
2023/10/08 10:27:27;;;;;;;2.72;2.50;;;15.30;99.90;;;;;;5033762;28;20205;-77
2023/10/08 10:30:08;;;;;;;2.60;1.48;;;15.30;99.90;;;;;;5024477;28;20205;-77
2023/10/08 10:32:36;;;;;;;3.90;1.08;;;15.40;99.90;;;;;;5028276;28;20199;-77
2023/10/08 10:35:07;;;;;;;2.08;0.85;;;15.10;99.90;;;;;;5049784;28;20203;-77
2023/10/08 10:37:41;;;;;;;3.22;1.60;;;15.20;99.90;;;;;;5033733;28;20194;-78
2023/10/08 10:40:12;;;;;;;2.22;0.80;;;15.10;99.90;;;;;;5026582;28;20194;-79
2023/10/08 10:42:44;;;;;;;3.22;0.90;;;15.20;99.90;;;;;;5045825;28;20196;-78
2023/10/08 10:45:44;;;;;;;2.38;1.42;;;15.30;99.90;;;;;;5027722;28;20206;-78
2023/10/08 10:48:21;;;;;;;4.28;1.00;;;15.30;99.90;;;;;;5021746;28;20198;-78
2023/10/08 10:55:00;;;;;;;2.45;0.95;;;15.50;99.90;;;;;;5055390;28;20190;-78
2023/10/08 10:57:42;;;;;;;1.10;0.68;;;15.60;99.90;;;;;;5035737;28;20201;-78
2023/10/08 11:03:28;;;;;;;1.38;0.40;;;15.50;99.90;;;;;;5041819;28;20194;-78
2023/10/08 11:06:05;;;;;;;2.20;0.70;;;15.60;99.90;;;;;;5026698;28;20206;-78
2023/10/08 11:08:35;;;;;;;1.08;0.68;;;15.80;99.90;;;;;;5038216;28;20187;-78
2023/10/08 11:11:09;;;;;;;1.67;0.60;;;15.90;99.90;;;;;;5047220;28;20218;-77
2023/10/08 11:13:39;;;;;;;2.90;1.05;;;15.80;99.90;;;;;;5034622;28;20205;-77
2023/10/08 11:16:13;;;;;;;4.07;0.80;;;16.00;99.90;;;;;;5032199;28;20195;-77
2023/10/08 11:18:44;;;;;;;3.38;0.68;;;16.00;99.90;;;;;;5025032;28;20199;-77
2023/10/08 11:21:15;;;;;;;2.58;0.57;;;16.00;99.90;;;;;;5026480;28;20574;-77
2023/10/08 11:23:46;;;;;;;2.33;0.50;;;16.00;99.90;;;;;;5026447;28;20202;-77
2023/10/08 11:26:16;;;;;;;2.67;0.50;;;15.90;99.90;;;;;;5049555;28;20198;-78
2023/10/08 11:28:47;;;;;;;1.80;0.55;;;16.10;99.90;;;;;;5030127;28;20207;-77
2023/10/08 11:31:19;;;;;;;2.65;0.68;;;15.90;99.90;;;;;;5031839;28;20221;-79
2023/10/08 11:33:53;;;;;;;2.95;0.73;;;15.80;99.90;;;;;;5032320;28;20226;-78
2023/10/08 11:36:27;;;;;;;1.80;0.80;;;15.90;99.90;;;;;;5032208;28;20194;-77
2023/10/08 11:39:00;;;;;;;2.33;0.90;;;15.90;99.90;;;;;;5031103;28;20206;-77
2023/10/08 11:41:44;;;;;;;2.38;0.60;;;16.00;99.90;;;;;;5027703;28;20219;-77
2023/10/08 11:44:19;;;;;;;2.58;0.57;;;15.80;99.90;;;;;;5033595;28;20207;-77
2023/10/08 11:46:51;;;;;;;2.70;0.52;;;15.90;99.90;;;;;;5020435;28;20285;-77
2023/10/08 11:49:18;;;;;;;2.35;0.80;;;16.00;99.90;;;;;;5030839;28;20206;-77
2023/10/08 11:51:47;;;;;;;1.92;0.63;;;15.90;99.90;;;;;;5029337;28;20234;-77
2023/10/08 11:54:14;;;;;;;2.40;0.60;;;16.00;99.90;;;;;;5043932;28;20664;-77
2023/10/08 11:56:44;;;;;;;1.77;0.70;;;16.10;99.90;;;;;;5031340;28;20201;-77
2023/10/08 11:59:12;;;;;;;3.72;0.88;;;16.20;99.90;;;;;;5038866;28;20201;-77
2023/10/08 12:01:42;;;;;;;1.85;0.55;;;16.30;99.90;;;;;;5031467;28;20225;-77
2023/10/08 12:04:12;;;;;;;2.95;0.80;;;16.30;99.90;;;;;;5028358;28;20202;-77
2023/10/08 12:06:46;;;;;;;3.60;0.68;;;16.00;99.90;;;;;;5023199;28;20206;-77
2023/10/08 12:10:04;;;;;;;0.65;0.50;;;16.20;99.90;;;;;;5029083;28;20767;-77
2023/10/08 12:12:35;;;;;;;3.65;0.80;;;16.30;99.90;;;;;;5023723;28;20199;-77
2023/10/08 12:15:03;;;;;;;1.42;0.60;;;16.40;99.90;;;;;;5029803;28;20656;-77
2023/10/08 12:17:39;;;;;;;3.03;0.95;;;16.10;99.90;;;;;;5043680;28;20209;-77
2023/10/08 12:20:22;;;;;;;3.42;0.90;;;16.30;99.90;;;;;;5021540;28;20224;-77
2023/10/08 12:22:50;;;;;;;2.25;0.88;;;16.30;99.90;;;;;;5022820;28;20668;-77
2023/10/08 12:25:18;;;;;;;1.40;0.65;;;16.50;99.90;;;;;;5047056;28;20248;-77
2023/10/08 12:27:50;;;;;;;1.33;0.80;;;16.50;99.90;;;;;;5027109;28;20198;-77
2023/10/08 12:30:52;;;;;;;1.85;0.70;;;16.60;99.90;;;;;;5047732;28;20191;-77
2023/10/08 12:33:25;;;;;;;2.63;0.70;;;16.70;99.90;;;;;;4967781;28;20207;-77
2023/10/08 12:36:42;;;;;;;1.27;0.93;;;16.60;99.90;;;;;;4973120;28;20207;-77
2023/10/08 12:39:30;;;;;;;2.05;1.10;;;16.60;99.90;;;;;;5020448;28;20210;-77
2023/10/08 12:42:04;;;;;;;1.55;0.90;;;16.70;99.90;;;;;;5032809;28;20225;-77
2023/10/08 12:44:42;;;;;;;3.58;0.80;;;16.70;99.90;;;;;;5033679;28;20204;-77
2023/10/08 12:47:12;;;;;;;3.00;1.00;;;16.60;99.90;;;;;;5030582;28;20205;-77
2023/10/08 12:49:40;;;;;;;4.00;1.52;;;16.50;99.90;;;;;;5024695;28;20286;-77
2023/10/08 12:54:45;;;;;;;1.70;1.02;;;16.90;99.90;;;;;;5032557;28;20213;-77
2023/10/08 12:57:16;;;;;;;2.28;0.90;;;16.80;99.90;;;;;;5030518;28;20230;-77
2023/10/08 12:59:51;;;;;;;4.00;1.10;;;16.70;99.90;;;;;;5043779;28;20211;-76
2023/10/08 13:02:19;;;;;;;1.02;0.65;;;16.70;99.90;;;;;;5033545;28;20217;-77
2023/10/08 13:04:46;;;;;;;1.88;0.90;;;16.40;99.90;;;;;;5027630;28;20225;-78
2023/10/08 13:07:22;;;;;;;1.98;0.80;;;16.50;99.90;;;;;;5029326;28;20206;-77
2023/10/08 13:09:49;;;;;;;1.88;0.93;;;16.40;99.90;;;;;;5035561;28;20268;-77
2023/10/08 13:12:17;;;;;;;2.63;0.90;;;16.50;99.90;;;;;;5026167;28;20210;-77
2023/10/08 13:14:46;;;;;;;2.58;1.10;;;16.80;99.90;;;;;;5028346;28;20211;-78
2023/10/08 13:17:13;;;;;;;2.13;0.90;;;16.80;99.90;;;;;;5028355;28;20660;-78
2023/10/08 13:19:40;;;;;;;1.67;0.90;;;16.90;99.90;;;;;;5028060;28;20194;-78
2023/10/08 13:22:08;;;;;;;1.60;0.60;;;17.10;99.90;;;;;;5022524;28;20199;-77
2023/10/08 13:25:04;;;;;;;5.50;1.00;;;16.90;99.90;;;;;;5044952;28;20198;-78
2023/10/08 13:27:32;;;;;;;2.95;0.80;;;16.80;99.90;;;;;;5028220;28;20203;-78
2023/10/08 13:30:05;;;;;;;1.25;0.80;;;16.60;99.90;;;;;;5032496;28;20207;-78
2023/10/08 13:32:32;;;;;;;1.30;0.60;;;16.90;99.90;;;;;;5030017;28;20218;-79